createdAt,value
2024-05-09T00:01:26.300Z,10.00
2024-05-09T00:03:56.359Z,10.00
2024-05-09T00:06:29.114Z,10.00
2024-05-09T00:08:59.350Z,10.10
2024-05-09T00:11:29.543Z,10.00
2024-05-09T00:13:59.677Z,9.90
2024-05-09T00:16:29.728Z,9.80
2024-05-09T00:18:59.886Z,9.80
2024-05-09T00:21:32.762Z,9.70
2024-05-09T00:24:02.826Z,9.60
2024-05-09T00:26:32.991Z,9.60
2024-05-09T00:29:03.060Z,9.60
2024-05-09T00:31:33.253Z,9.60
2024-05-09T00:34:03.469Z,9.60
2024-05-09T00:36:36.389Z,9.60
2024-05-09T00:39:06.569Z,9.60
2024-05-09T00:41:36.758Z,9.60
2024-05-09T00:44:08.371Z,9.60
2024-05-09T00:46:38.757Z,9.60
2024-05-09T00:49:09.564Z,9.60
2024-05-09T00:51:43.707Z,9.60
2024-05-09T00:54:13.862Z,9.60
2024-05-09T00:56:45.034Z,9.60
2024-05-09T00:59:17.755Z,9.60
2024-05-09T01:01:49.192Z,9.70
2024-05-09T01:04:19.807Z,9.60
2024-05-09T01:06:53.484Z,9.60
2024-05-09T01:09:23.810Z,9.60
2024-05-09T01:11:53.759Z,9.50
2024-05-09T01:14:23.842Z,9.40
2024-05-09T01:16:53.822Z,9.40
2024-05-09T01:19:33.105Z,9.30
2024-05-09T01:22:07.978Z,9.30
2024-05-09T01:24:40.599Z,9.40
2024-05-09T01:27:10.553Z,9.40
2024-05-09T01:29:40.477Z,9.30
2024-05-09T01:32:10.742Z,9.30
2024-05-09T01:34:40.819Z,9.30
2024-05-09T01:37:10.829Z,9.30
2024-05-09T01:39:43.538Z,9.30
2024-05-09T01:42:13.536Z,9.20
2024-05-09T01:44:43.897Z,9.20
2024-05-09T01:47:13.961Z,9.20
2024-05-09T01:49:44.213Z,9.10
2024-05-09T01:52:14.308Z,9.20
2024-05-09T01:54:47.501Z,9.30
2024-05-09T01:57:17.459Z,9.30
2024-05-09T01:59:47.334Z,9.40
2024-05-09T02:02:17.559Z,9.40
2024-05-09T02:04:50.225Z,9.50
2024-05-09T02:07:20.700Z,9.60
2024-05-09T02:09:54.768Z,9.70
2024-05-09T02:12:25.001Z,9.80
2024-05-09T02:14:55.202Z,10.00
2024-05-09T02:17:25.526Z,10.00
2024-05-09T02:19:55.805Z,10.10
2024-05-09T02:22:26.071Z,10.20
2024-05-09T02:24:58.751Z,10.30
2024-05-09T02:27:28.810Z,10.40
2024-05-09T02:29:58.758Z,10.40
2024-05-09T02:32:28.828Z,10.40
2024-05-09T02:34:56.740Z,10.40
2024-05-09T02:37:26.745Z,10.40
2024-05-09T02:39:56.942Z,10.40
2024-05-09T02:42:27.016Z,10.40
2024-05-09T02:44:54.505Z,10.30
2024-05-09T02:47:24.779Z,10.20
2024-05-09T02:49:52.335Z,10.20
2024-05-09T02:52:22.554Z,10.10
2024-05-09T02:54:50.025Z,10.00
2024-05-09T02:57:22.621Z,9.90
2024-05-09T02:59:49.957Z,9.90
2024-05-09T03:02:19.985Z,9.70
2024-05-09T03:04:47.649Z,9.60
2024-05-09T03:07:20.067Z,9.50
2024-05-09T03:09:48.061Z,9.40
2024-05-09T03:12:18.063Z,9.30
2024-05-09T03:14:50.209Z,9.20
2024-05-09T03:17:20.426Z,9.20
2024-05-09T03:19:47.929Z,9.10
2024-05-09T03:22:17.952Z,9.10
2024-05-09T03:24:45.373Z,9.00
2024-05-09T03:27:15.578Z,9.00
2024-05-09T03:29:42.995Z,8.90
2024-05-09T03:32:15.871Z,8.90
2024-05-09T03:34:43.282Z,8.80
2024-05-09T03:37:13.231Z,8.80
2024-05-09T03:39:43.496Z,8.80
2024-05-09T03:42:13.676Z,8.70
2024-05-09T03:44:43.728Z,8.80
2024-05-09T03:47:14.062Z,8.80
2024-05-09T03:49:44.396Z,8.70
2024-05-09T03:52:11.669Z,8.70
2024-05-09T03:54:48.256Z,8.70
2024-05-09T03:57:15.524Z,8.70
2024-05-09T03:59:45.548Z,8.80
2024-05-09T04:02:15.546Z,8.80
2024-05-09T04:04:46.077Z,8.80
2024-05-09T04:07:13.948Z,8.80
2024-05-09T04:09:43.971Z,8.90
2024-05-09T04:12:11.548Z,8.90
2024-05-09T04:14:43.103Z,8.90
2024-05-09T04:17:10.460Z,9.00
2024-05-09T04:19:43.136Z,9.00
2024-05-09T04:22:10.671Z,9.10
2024-05-09T04:24:40.545Z,9.30
2024-05-09T04:27:07.845Z,9.60
2024-05-09T04:29:37.993Z,9.90
2024-05-09T04:32:06.268Z,10.30
2024-05-09T04:34:38.830Z,10.70
2024-05-09T04:37:11.420Z,11.20
2024-05-09T04:39:38.922Z,11.70
2024-05-09T04:42:09.087Z,12.10
2024-05-09T04:44:36.487Z,12.50
2024-05-09T04:47:06.713Z,13.00
2024-05-09T04:49:34.282Z,13.50
2024-05-09T04:52:04.496Z,13.90
2024-05-09T04:54:36.660Z,14.30
2024-05-09T04:57:07.310Z,14.70
2024-05-09T04:59:34.795Z,15.20
2024-05-09T05:02:05.088Z,15.60
2024-05-09T05:04:32.642Z,16.00
2024-05-09T05:07:03.083Z,16.40
2024-05-09T05:09:30.880Z,16.80
2024-05-09T05:12:23.643Z,17.10
2024-05-09T05:14:51.397Z,17.50
2024-05-09T05:17:21.542Z,17.80
2024-05-09T05:19:49.287Z,18.20
2024-05-09T05:22:19.465Z,18.60
2024-05-09T05:24:46.755Z,19.00
2024-05-09T05:27:19.276Z,19.30
2024-05-09T05:29:47.598Z,19.70
2024-05-09T05:32:17.665Z,20.10
2024-05-09T05:34:45.262Z,20.00
2024-05-09T05:37:15.336Z,19.80
2024-05-09T05:39:42.676Z,19.90
2024-05-09T05:42:12.545Z,19.90
2024-05-09T05:44:42.460Z,20.10
2024-05-09T05:47:12.753Z,20.70
2024-05-09T05:49:40.357Z,21.10
2024-05-09T05:52:10.397Z,21.70
2024-05-09T05:54:37.702Z,22.40
2024-05-09T05:57:07.891Z,22.80
2024-05-09T05:59:35.221Z,23.20
2024-05-09T06:02:09.593Z,23.40
2024-05-09T06:04:37.245Z,23.40
2024-05-09T06:07:08.063Z,23.50
2024-05-09T06:09:35.655Z,23.70
2024-05-09T06:12:06.126Z,23.90
2024-05-09T06:14:33.695Z,24.20
2024-05-09T06:17:03.679Z,24.40
2024-05-09T06:19:33.855Z,24.60
2024-05-09T06:22:04.456Z,24.40
2024-05-09T06:24:31.802Z,24.60
2024-05-09T06:27:03.712Z,25.30
2024-05-09T06:29:31.276Z,26.20
2024-05-09T06:32:01.665Z,26.80
2024-05-09T06:34:29.901Z,27.50
2024-05-09T06:37:02.545Z,28.00
2024-05-09T06:39:30.055Z,28.40
2024-05-09T06:42:00.161Z,28.60
2024-05-09T06:44:27.779Z,28.90
2024-05-09T06:46:59.966Z,28.80
2024-05-09T06:49:30.152Z,28.30
2024-05-09T06:52:02.939Z,28.00
2024-05-09T06:54:31.143Z,28.10
2024-05-09T06:57:01.190Z,27.80
2024-05-09T06:59:29.131Z,28.00
2024-05-09T07:01:59.529Z,28.60
2024-05-09T07:04:26.925Z,29.40
2024-05-09T07:06:57.073Z,30.10
2024-05-09T07:09:29.693Z,30.70
2024-05-09T07:11:57.102Z,31.60
2024-05-09T07:14:27.941Z,32.30
2024-05-09T07:16:55.337Z,33.00
2024-05-09T07:19:27.651Z,33.70
2024-05-09T07:21:54.989Z,33.70
2024-05-09T07:24:25.132Z,33.60
2024-05-09T07:26:55.055Z,33.80
2024-05-09T07:29:24.943Z,34.30
2024-05-09T07:31:52.340Z,34.60
2024-05-09T07:34:22.764Z,34.90
2024-05-09T07:36:50.935Z,35.50
2024-05-09T07:39:22.782Z,35.90
2024-05-09T07:41:50.302Z,36.20
2024-05-09T07:44:22.874Z,36.20
2024-05-09T07:47:52.284Z,36.40
2024-05-09T07:53:29.246Z,36.10
2024-05-09T07:55:00.623Z,36.00
2024-05-09T07:57:28.375Z,35.70
2024-05-09T08:00:01.109Z,35.80
2024-05-09T08:02:28.787Z,35.20
2024-05-09T08:04:58.900Z,35.40
2024-05-09T08:07:26.714Z,35.20
2024-05-09T08:09:56.788Z,34.90
2024-05-09T08:12:24.201Z,34.70
2024-05-09T08:14:55.340Z,35.50
2024-05-09T08:17:25.870Z,36.50
2024-05-09T08:19:56.198Z,37.00
2024-05-09T08:22:23.405Z,37.00
2024-05-09T08:24:54.179Z,37.60
2024-05-09T08:27:21.599Z,37.20
2024-05-09T08:29:53.955Z,36.80
2024-05-09T08:32:21.321Z,37.30
2024-05-09T08:34:54.188Z,37.70
2024-05-09T08:37:24.675Z,37.90
2024-05-09T08:39:57.898Z,37.90
2024-05-09T08:42:27.420Z,37.70
2024-05-09T08:45:00.609Z,38.20
2024-05-09T08:47:31.873Z,38.80
2024-05-09T08:50:10.941Z,39.20
2024-05-09T08:52:41.670Z,38.90
2024-05-09T08:55:11.934Z,39.00
2024-05-09T08:57:40.904Z,39.70
2024-05-09T09:00:15.197Z,40.10
2024-05-09T09:02:51.043Z,39.70
2024-05-09T09:05:28.539Z,39.60
2024-05-09T09:07:55.859Z,39.30
2024-05-09T09:10:31.908Z,39.90
2024-05-09T09:13:04.465Z,39.90
2024-05-09T09:15:35.162Z,40.40
2024-05-09T09:18:03.272Z,41.10
2024-05-09T09:20:37.098Z,40.50
2024-05-09T09:23:05.124Z,39.20
2024-05-09T09:25:35.043Z,38.10
2024-05-09T09:28:02.654Z,38.60
2024-05-09T09:30:37.310Z,38.00
2024-05-09T09:33:06.443Z,38.30
2024-05-09T09:35:41.870Z,39.20
2024-05-09T09:38:10.794Z,39.60
2024-05-09T09:40:48.343Z,39.40
2024-05-09T09:43:20.220Z,39.50
2024-05-09T09:45:55.244Z,38.80
2024-05-09T09:48:23.601Z,39.00
2024-05-09T09:50:58.057Z,39.60
2024-05-09T09:53:25.822Z,40.00
2024-05-09T09:55:57.777Z,39.70
2024-05-09T09:58:25.730Z,39.80
2024-05-09T10:00:55.942Z,39.00
2024-05-09T10:03:23.526Z,38.60
2024-05-09T10:05:56.969Z,39.20
2024-05-09T10:08:24.573Z,40.00
2024-05-09T10:10:54.717Z,40.70
2024-05-09T10:13:33.735Z,41.50
2024-05-09T10:16:11.287Z,40.70
2024-05-09T10:18:40.850Z,38.50
2024-05-09T10:21:23.715Z,37.90
2024-05-09T10:23:58.968Z,38.50
2024-05-09T10:26:35.951Z,39.60
2024-05-09T10:29:12.669Z,39.90
2024-05-09T10:31:45.931Z,39.50
2024-05-09T10:34:18.562Z,39.00
2024-05-09T10:36:55.810Z,37.40
2024-05-09T10:39:25.031Z,36.80
2024-05-09T10:41:55.137Z,37.20
2024-05-09T10:44:22.501Z,38.00
2024-05-09T10:46:54.766Z,37.40
2024-05-09T10:49:23.034Z,36.00
2024-05-09T10:51:56.151Z,35.70
2024-05-09T10:54:23.550Z,36.20
2024-05-09T10:56:59.527Z,37.60
2024-05-09T10:59:33.444Z,38.70
2024-05-09T11:02:05.927Z,37.90
2024-05-09T11:04:34.912Z,37.70
2024-05-09T11:07:11.268Z,37.90
2024-05-09T11:09:39.647Z,37.90
2024-05-09T11:12:10.732Z,37.80
2024-05-09T11:14:38.527Z,37.40
2024-05-09T11:17:09.953Z,37.60
2024-05-09T11:19:40.104Z,36.80
2024-05-09T11:22:12.993Z,35.60
2024-05-09T11:24:41.103Z,34.50
2024-05-09T11:27:11.077Z,34.20
2024-05-09T11:29:39.375Z,34.90
2024-05-09T11:32:11.548Z,36.10
2024-05-09T11:34:39.340Z,35.80
2024-05-09T11:37:13.593Z,34.30
2024-05-09T11:39:41.502Z,33.90
2024-05-09T11:42:11.890Z,33.60
2024-05-09T11:44:39.282Z,33.40
2024-05-09T11:47:09.337Z,32.80
2024-05-09T11:49:36.872Z,31.60
2024-05-09T11:52:07.518Z,31.50
2024-05-09T11:54:37.613Z,32.10
2024-05-09T11:57:09.585Z,33.50
2024-05-09T11:59:39.690Z,33.90
2024-05-09T12:02:10.332Z,34.00
2024-05-09T12:04:37.926Z,34.60
2024-05-09T12:07:09.141Z,34.60
2024-05-09T12:09:41.837Z,34.20
2024-05-09T12:12:11.790Z,35.00
2024-05-09T12:14:40.283Z,34.90
2024-05-09T12:17:10.287Z,34.50
2024-05-09T12:19:38.116Z,34.20
2024-05-09T12:22:08.618Z,34.20
2024-05-09T12:24:36.321Z,34.20
2024-05-09T12:27:09.020Z,34.40
2024-05-09T12:29:38.648Z,35.30
2024-05-09T12:32:11.343Z,35.10
2024-05-09T12:34:38.952Z,34.20
2024-05-09T12:37:08.992Z,32.80
2024-05-09T12:39:36.437Z,32.80
2024-05-09T12:42:10.912Z,33.40
2024-05-09T12:44:40.018Z,33.50
2024-05-09T12:47:10.265Z,33.40
2024-05-09T12:49:37.788Z,34.30
2024-05-09T12:52:08.666Z,35.80
2024-05-09T12:54:36.184Z,35.30
2024-05-09T12:57:08.984Z,34.20
2024-05-09T12:59:36.675Z,33.50
2024-05-09T13:02:07.344Z,33.10
2024-05-09T13:04:35.087Z,32.80
2024-05-09T13:07:07.729Z,32.70
2024-05-09T13:09:35.744Z,33.50
2024-05-09T13:12:08.764Z,33.60
2024-05-09T13:14:36.180Z,33.30
2024-05-09T13:17:06.264Z,33.20
2024-05-09T13:19:33.789Z,34.20
2024-05-09T13:22:03.764Z,34.70
2024-05-09T13:24:31.206Z,34.70
2024-05-09T13:27:01.502Z,34.90
2024-05-09T13:29:31.774Z,34.70
2024-05-09T13:32:01.829Z,35.40
2024-05-09T13:34:29.367Z,36.10
2024-05-09T13:36:59.709Z,36.70
2024-05-09T13:39:27.041Z,37.70
2024-05-09T13:42:34.314Z,38.10
2024-05-09T13:45:04.644Z,38.60
2024-05-09T13:47:35.059Z,38.90
2024-05-09T13:50:05.190Z,39.10
2024-05-09T13:52:35.348Z,38.40
2024-05-09T13:55:02.750Z,36.70
2024-05-09T13:57:33.393Z,35.20
2024-05-09T14:00:07.017Z,34.40
2024-05-09T14:02:41.745Z,33.80
2024-05-09T14:05:12.918Z,33.80
2024-05-09T14:07:44.002Z,34.30
2024-05-09T14:10:19.907Z,34.30
2024-05-09T14:12:56.013Z,33.60
2024-05-09T14:15:26.775Z,32.80
2024-05-09T14:17:57.126Z,32.20
2024-05-09T14:20:30.984Z,31.50
2024-05-09T14:23:02.647Z,31.10
2024-05-09T14:25:32.171Z,30.80
2024-05-09T14:28:02.879Z,30.90
2024-05-09T14:30:37.238Z,31.50
2024-05-09T14:33:09.794Z,32.10
2024-05-09T14:35:38.766Z,32.50
2024-05-09T14:38:10.017Z,33.40
2024-05-09T14:40:42.392Z,34.30
2024-05-09T14:43:16.885Z,34.40
2024-05-09T14:45:47.210Z,34.50
2024-05-09T14:48:19.936Z,34.70
2024-05-09T14:50:48.082Z,34.90
2024-05-09T14:53:20.171Z,34.80
2024-05-09T14:55:49.500Z,34.60
2024-05-09T14:58:20.138Z,34.60
2024-05-09T15:00:51.636Z,34.70
2024-05-09T15:03:22.889Z,34.90
2024-05-09T15:05:51.458Z,35.50
2024-05-09T15:08:22.391Z,35.90
2024-05-09T15:10:50.757Z,36.20
2024-05-09T15:13:21.282Z,36.70
2024-05-09T15:15:51.905Z,35.90
2024-05-09T15:18:22.375Z,34.70
2024-05-09T15:20:49.951Z,33.60
2024-05-09T15:23:19.940Z,32.30
2024-05-09T15:25:47.691Z,31.20
2024-05-09T15:28:20.814Z,30.10
2024-05-09T15:30:50.945Z,29.30
2024-05-09T15:33:21.114Z,28.50
2024-05-09T15:35:48.902Z,27.90
2024-05-09T15:38:19.684Z,27.60
2024-05-09T15:40:47.279Z,27.90
2024-05-09T15:43:17.673Z,28.40
2024-05-09T15:45:49.898Z,29.20
2024-05-09T15:48:22.506Z,29.90
2024-05-09T15:50:50.196Z,30.40
2024-05-09T15:53:20.358Z,30.50
2024-05-09T15:55:47.726Z,30.50
2024-05-09T15:58:20.853Z,31.00
2024-05-09T16:00:50.593Z,31.50
2024-05-09T16:03:25.064Z,31.80
2024-05-09T16:05:52.845Z,31.50
2024-05-09T16:08:23.104Z,30.70
2024-05-09T16:10:51.260Z,30.00
2024-05-09T16:13:22.073Z,29.30
2024-05-09T16:15:52.584Z,28.60
2024-05-09T16:18:25.854Z,28.20
2024-05-09T16:20:59.581Z,28.20
2024-05-09T16:23:29.601Z,28.50
2024-05-09T16:25:57.405Z,28.80
2024-05-09T16:28:27.877Z,29.10
2024-05-09T16:30:55.702Z,29.50
2024-05-09T16:33:28.424Z,29.80
2024-05-09T16:35:56.044Z,29.80
2024-05-09T16:38:26.041Z,30.10
2024-05-09T16:40:53.673Z,30.40
2024-05-09T16:43:24.259Z,30.30
2024-05-09T16:45:52.600Z,30.20
2024-05-09T16:48:22.897Z,29.90
2024-05-09T16:50:52.993Z,29.40
2024-05-09T16:53:23.374Z,29.00
2024-05-09T16:55:50.938Z,28.60
2024-05-09T16:58:24.189Z,28.10
2024-05-09T17:00:51.807Z,27.50
2024-05-09T17:03:22.066Z,26.90
2024-05-09T17:05:52.428Z,26.50
2024-05-09T17:08:22.777Z,26.10
2024-05-09T17:10:50.330Z,25.70
2024-05-09T17:13:21.183Z,25.20
2024-05-09T17:15:51.934Z,24.90
2024-05-09T17:18:19.649Z,24.60
2024-05-09T17:20:50.303Z,24.30
2024-05-09T17:23:20.501Z,24.00
2024-05-09T17:25:50.792Z,23.80
2024-05-09T17:28:18.695Z,23.60
2024-05-09T17:30:49.133Z,23.40
2024-05-09T17:33:16.611Z,23.20
2024-05-09T17:35:50.399Z,23.00
2024-05-09T17:38:22.945Z,22.80
2024-05-09T17:40:53.669Z,22.70
2024-05-09T17:43:21.395Z,22.50
2024-05-09T17:45:51.716Z,22.40
2024-05-09T17:48:19.330Z,22.30
2024-05-09T17:50:51.452Z,22.10
2024-05-09T17:53:21.623Z,22.00
2024-05-09T17:55:53.922Z,21.90
2024-05-09T17:58:21.675Z,21.80
2024-05-09T18:00:52.316Z,21.70
2024-05-09T18:03:19.995Z,21.60
2024-05-09T18:05:50.209Z,21.50
2024-05-09T18:08:20.347Z,21.40
2024-05-09T18:10:52.112Z,21.30
2024-05-09T18:13:23.871Z,21.10
2024-05-09T18:15:53.966Z,21.00
2024-05-09T18:18:21.550Z,20.80
2024-05-09T18:20:52.642Z,20.60
2024-05-09T18:23:23.239Z,20.50
2024-05-09T18:25:54.885Z,20.30
2024-05-09T18:28:23.559Z,20.20
2024-05-09T18:30:53.759Z,20.00
2024-05-09T18:33:21.453Z,19.80
2024-05-09T18:35:54.746Z,19.70
2024-05-09T18:38:26.931Z,19.50
2024-05-09T18:40:57.532Z,19.40
2024-05-09T18:43:31.120Z,19.20
2024-05-09T18:46:06.865Z,19.10
2024-05-09T18:48:34.889Z,18.90
2024-05-09T18:51:05.535Z,18.80
2024-05-09T18:53:35.774Z,18.60
2024-05-09T18:56:05.833Z,18.50
2024-05-09T18:58:33.677Z,18.40
2024-05-09T19:01:04.438Z,18.30
2024-05-09T19:03:32.253Z,18.20
2024-05-09T19:06:02.551Z,18.10
2024-05-09T19:08:30.058Z,18.00
2024-05-09T19:11:03.444Z,17.90
2024-05-09T19:13:31.242Z,17.70
2024-05-09T19:16:01.473Z,17.60
2024-05-09T19:18:30.864Z,17.50
2024-05-09T19:21:00.974Z,17.40
2024-05-09T19:23:29.005Z,17.30
2024-05-09T19:25:59.347Z,17.20
2024-05-09T19:28:31.233Z,17.10
2024-05-09T19:31:01.726Z,16.90
2024-05-09T19:33:29.390Z,16.80
2024-05-09T19:35:59.566Z,16.70
2024-05-09T19:38:27.050Z,16.70
2024-05-09T19:40:57.301Z,16.50
2024-05-09T19:43:24.959Z,16.50
2024-05-09T19:45:57.953Z,16.40
2024-05-09T19:48:25.529Z,16.40
2024-05-09T19:50:55.645Z,16.40
2024-05-09T19:53:23.916Z,16.40
2024-05-09T19:55:54.037Z,16.40
2024-05-09T19:58:21.656Z,16.40
2024-05-09T20:00:51.883Z,16.30
2024-05-09T20:03:21.974Z,16.30
2024-05-09T20:05:52.602Z,16.30
2024-05-09T20:08:20.268Z,16.30
2024-05-09T20:10:50.320Z,16.30
2024-05-09T20:13:17.721Z,16.30
2024-05-09T20:15:51.038Z,16.40
2024-05-09T20:18:24.096Z,16.40
2024-05-09T20:20:53.923Z,16.30
2024-05-09T20:23:24.437Z,16.20
2024-05-09T20:25:52.911Z,16.10
2024-05-09T20:28:22.988Z,16.00
2024-05-09T20:30:50.660Z,15.90
2024-05-09T20:33:20.911Z,15.90
2024-05-09T20:35:51.560Z,15.90
2024-05-09T20:38:21.638Z,15.80
2024-05-09T20:40:52.009Z,15.80
2024-05-09T20:43:22.212Z,15.70
2024-05-09T20:45:49.766Z,15.50
2024-05-09T20:48:19.887Z,15.40
2024-05-09T20:50:48.582Z,15.40
2024-05-09T20:53:21.403Z,15.30
2024-05-09T20:55:51.135Z,15.20
2024-05-09T20:58:21.450Z,15.10
2024-05-09T21:00:49.600Z,15.00
2024-05-09T21:03:19.935Z,14.90
2024-05-09T21:05:48.388Z,14.60
2024-05-09T21:08:22.753Z,14.60
2024-05-09T21:10:50.850Z,14.40
2024-05-09T21:13:21.093Z,14.30
2024-05-09T21:15:49.007Z,14.30
2024-05-09T21:18:19.208Z,14.20
2024-05-09T21:20:46.590Z,14.10
2024-05-09T21:23:17.109Z,14.00
2024-05-09T21:25:47.398Z,13.90
2024-05-09T21:28:20.474Z,13.80
2024-05-09T21:30:48.874Z,13.70
2024-05-09T21:33:19.269Z,13.50
2024-05-09T21:35:46.971Z,13.40
2024-05-09T21:38:18.856Z,13.30
2024-05-09T21:40:49.449Z,13.20
2024-05-09T21:43:19.789Z,13.30
2024-05-09T21:45:47.388Z,13.30
2024-05-09T21:48:19.691Z,13.30
2024-05-09T21:50:48.970Z,13.30
2024-05-09T21:53:19.182Z,13.30
2024-05-09T21:55:50.264Z,13.30
2024-05-09T21:58:20.390Z,13.20
2024-05-09T22:00:48.180Z,13.10
2024-05-09T22:03:18.919Z,13.00
2024-05-09T22:05:46.566Z,13.00
2024-05-09T22:08:16.833Z,12.80
2024-05-09T22:10:45.216Z,12.80
2024-05-09T22:13:23.531Z,12.80
2024-05-09T22:15:51.313Z,12.90
2024-05-09T22:18:21.531Z,12.90
2024-05-09T22:20:49.232Z,12.90
2024-05-09T22:23:19.423Z,12.80
2024-05-09T22:25:46.765Z,12.70
2024-05-09T22:28:20.525Z,12.70
2024-05-09T22:30:53.124Z,12.60
2024-05-09T22:33:26.349Z,12.50
2024-05-09T22:35:54.012Z,12.50
2024-05-09T22:38:24.189Z,12.40
2024-05-09T22:40:52.325Z,12.40
2024-05-09T22:43:25.542Z,12.30
2024-05-09T22:45:54.583Z,12.30
2024-05-09T22:48:25.707Z,12.20
2024-05-09T22:50:54.534Z,12.20
2024-05-09T22:53:27.302Z,12.10
2024-05-09T22:55:54.670Z,12.10
2024-05-09T22:58:27.543Z,12.10
2024-05-09T23:00:55.196Z,12.10
2024-05-09T23:03:25.685Z,12.10
2024-05-09T23:05:53.331Z,12.10
2024-05-09T23:08:23.325Z,12.00
2024-05-09T23:10:51.261Z,12.00
2024-05-09T23:13:21.464Z,11.90
2024-05-09T23:15:51.694Z,11.80
2024-05-09T23:18:21.995Z,11.80
2024-05-09T23:20:49.773Z,11.70
2024-05-09T23:23:19.919Z,11.70
2024-05-09T23:25:47.569Z,11.60
2024-05-09T23:28:19.798Z,11.60
2024-05-09T23:30:47.308Z,11.50
2024-05-09T23:33:20.200Z,11.50
2024-05-09T23:35:47.699Z,11.40
2024-05-09T23:38:24.062Z,11.40
2024-05-09T23:40:51.618Z,11.40
2024-05-09T23:43:22.284Z,11.30
2024-05-09T23:45:49.895Z,11.30
2024-05-09T23:48:22.888Z,11.30
2024-05-09T23:50:50.435Z,11.20
2024-05-09T23:53:20.568Z,11.20
2024-05-09T23:55:48.130Z,11.10
2024-05-09T23:58:20.896Z,11.10
